createdAt,value
2022-11-10T00:01:49.183Z,14.40
2022-11-10T00:05:13.422Z,14.40
2022-11-10T00:08:34.763Z,14.30
2022-11-10T00:11:55.234Z,14.30
2022-11-10T00:15:15.804Z,14.20
2022-11-10T00:18:36.545Z,14.20
2022-11-10T00:21:59.906Z,14.20
2022-11-10T00:25:20.817Z,14.10
2022-11-10T00:28:41.824Z,14.00
2022-11-10T00:32:05.036Z,14.00
2022-11-10T00:35:25.886Z,13.70
2022-11-10T00:38:46.466Z,13.70
2022-11-10T00:42:06.880Z,13.70
2022-11-10T00:45:27.617Z,13.50
2022-11-10T00:48:48.200Z,13.50
2022-11-10T00:52:08.735Z,13.40
2022-11-10T00:55:29.462Z,13.40
2022-11-10T00:58:49.909Z,13.40
2022-11-10T01:02:10.219Z,13.30
2022-11-10T01:05:31.158Z,13.30
2022-11-10T01:08:51.732Z,13.10
2022-11-10T01:12:14.658Z,13.10
2022-11-10T01:15:38.338Z,13.20
2022-11-10T01:19:01.232Z,13.20
2022-11-10T01:22:22.072Z,13.10
2022-11-10T01:25:44.703Z,13.10
2022-11-10T01:29:05.458Z,13.20
2022-11-10T01:32:25.984Z,13.10
2022-11-10T01:35:46.796Z,13.20
2022-11-10T01:39:07.430Z,13.10
2022-11-10T01:42:38.244Z,13.10
2022-11-10T01:46:09.606Z,13.00
2022-11-10T01:49:32.747Z,12.90
2022-11-10T01:52:59.940Z,12.80
2022-11-10T01:56:22.332Z,12.60
2022-11-10T01:59:46.434Z,12.60
2022-11-10T02:03:13.316Z,12.50
2022-11-10T02:06:36.012Z,12.40
2022-11-10T02:09:56.831Z,12.30
2022-11-10T02:13:17.365Z,12.30
2022-11-10T02:16:37.924Z,12.30
2022-11-10T02:20:04.156Z,12.30
2022-11-10T02:23:30.552Z,12.30
2022-11-10T02:26:53.381Z,12.30
2022-11-10T02:30:14.175Z,12.00
2022-11-10T02:33:34.884Z,12.00
2022-11-10T02:36:55.342Z,12.00
2022-11-10T02:40:16.292Z,11.80
2022-11-10T02:43:38.027Z,11.80
2022-11-10T02:46:58.224Z,11.80
2022-11-10T02:50:18.949Z,11.80
2022-11-10T02:53:39.281Z,11.70
2022-11-10T02:56:59.685Z,11.90
2022-11-10T03:00:20.078Z,11.60
2022-11-10T03:03:40.735Z,11.70
2022-11-10T03:07:01.184Z,11.60
2022-11-10T03:10:22.088Z,11.40
2022-11-10T03:14:00.354Z,11.40
2022-11-10T03:17:23.754Z,11.30
2022-11-10T03:20:47.825Z,11.50
2022-11-10T03:24:08.614Z,11.70
2022-11-10T03:27:29.127Z,11.50
2022-11-10T03:30:49.620Z,11.50
2022-11-10T03:34:10.168Z,11.70
2022-11-10T03:37:30.638Z,11.70
2022-11-10T03:41:17.550Z,11.80
2022-11-10T03:44:32.002Z,11.80
2022-11-10T03:47:52.871Z,11.60
2022-11-10T03:51:13.509Z,11.70
2022-11-10T03:54:33.880Z,11.80
2022-11-10T03:57:54.353Z,11.70
2022-11-10T04:01:14.984Z,11.70
2022-11-10T04:04:35.364Z,11.70
2022-11-10T04:08:00.756Z,11.80
2022-11-10T04:11:21.984Z,11.70
2022-11-10T04:14:42.785Z,11.70
2022-11-10T04:18:03.352Z,11.70
2022-11-10T04:21:23.832Z,11.60
2022-11-10T04:24:44.203Z,11.50
2022-11-10T04:28:04.670Z,11.60
2022-11-10T04:31:27.752Z,11.40
2022-11-10T04:34:48.629Z,11.50
2022-11-10T04:38:09.079Z,11.60
2022-11-10T04:41:30.554Z,11.50
2022-11-10T04:44:51.100Z,11.50
2022-11-10T04:48:11.392Z,11.50
2022-11-10T04:51:34.963Z,11.50
2022-11-10T04:54:55.337Z,11.40
2022-11-10T04:58:15.904Z,11.50
2022-11-10T05:01:36.471Z,11.30
2022-11-10T05:04:57.042Z,11.40
2022-11-10T05:08:17.318Z,11.40
2022-11-10T05:11:37.770Z,11.40
2022-11-10T05:14:58.317Z,11.40
2022-11-10T05:18:19.055Z,11.40
2022-11-10T05:21:39.733Z,11.40
2022-11-10T05:25:00.182Z,11.30
2022-11-10T05:28:20.934Z,11.50
2022-11-10T05:31:41.500Z,11.50
2022-11-10T05:35:02.313Z,11.60
2022-11-10T05:38:22.875Z,11.60
2022-11-10T05:41:43.381Z,11.50
2022-11-10T05:45:04.245Z,11.50
2022-11-10T05:48:24.850Z,11.50
2022-11-10T05:51:45.242Z,11.50
2022-11-10T05:55:05.975Z,11.40
2022-11-10T05:58:26.933Z,11.30
2022-11-10T06:01:47.394Z,11.10
2022-11-10T06:05:08.716Z,11.00
2022-11-10T06:08:29.234Z,11.00
2022-11-10T06:11:49.892Z,11.00
2022-11-10T06:15:10.746Z,11.00
2022-11-10T06:18:31.347Z,11.10
2022-11-10T06:21:57.050Z,11.10
2022-11-10T06:25:21.405Z,11.10
2022-11-10T06:28:41.984Z,11.00
2022-11-10T06:32:02.460Z,11.10
2022-11-10T06:35:23.866Z,11.20
2022-11-10T06:38:45.020Z,11.10
2022-11-10T06:42:05.340Z,11.30
2022-11-10T06:45:26.440Z,11.20
2022-11-10T06:48:46.545Z,11.10
2022-11-10T06:52:07.045Z,11.30
2022-11-10T06:55:28.525Z,11.40
2022-11-10T06:58:49.466Z,11.30
2022-11-10T07:02:14.934Z,11.10
2022-11-10T07:05:36.954Z,11.20
2022-11-10T07:08:58.823Z,11.30
2022-11-10T07:12:19.720Z,11.40
2022-11-10T07:15:41.146Z,11.50
2022-11-10T07:19:01.942Z,11.60
2022-11-10T07:22:22.350Z,11.60
2022-11-10T07:25:43.688Z,11.60
2022-11-10T07:29:04.432Z,11.50
2022-11-10T07:32:26.022Z,11.70
2022-11-10T07:35:59.238Z,11.90
2022-11-10T07:39:20.146Z,12.20
2022-11-10T07:42:41.359Z,12.50
2022-11-10T07:46:02.616Z,12.90
2022-11-10T07:49:26.232Z,14.00
2022-11-10T07:52:46.396Z,14.90
2022-11-10T07:56:07.429Z,15.70
2022-11-10T07:59:28.015Z,16.00
2022-11-10T08:02:48.529Z,16.40
2022-11-10T08:06:08.981Z,16.50
2022-11-10T08:09:29.495Z,15.90
2022-11-10T08:13:09.970Z,15.40
2022-11-10T08:16:30.121Z,15.60
2022-11-10T08:19:50.656Z,15.40
2022-11-10T08:23:11.747Z,15.20
2022-11-10T08:26:32.446Z,15.30
2022-11-10T08:29:52.877Z,15.00
2022-11-10T08:33:14.857Z,14.90
2022-11-10T08:36:35.115Z,14.90
2022-11-10T08:39:55.509Z,15.10
2022-11-10T08:43:17.292Z,15.40
2022-11-10T08:46:38.111Z,15.30
2022-11-10T08:49:58.553Z,15.40
2022-11-10T08:53:22.238Z,15.50
2022-11-10T08:56:43.407Z,15.60
2022-11-10T09:00:04.570Z,15.90
2022-11-10T09:03:25.901Z,15.60
2022-11-10T09:06:46.700Z,16.20
2022-11-10T09:10:08.030Z,16.60
2022-11-10T09:13:30.473Z,17.40
2022-11-10T09:16:50.903Z,18.60
2022-11-10T09:20:12.145Z,19.20
2022-11-10T09:23:32.594Z,19.50
2022-11-10T09:26:53.318Z,19.40
2022-11-10T09:30:17.599Z,19.40
2022-11-10T09:33:38.563Z,18.90
2022-11-10T09:37:01.338Z,18.90
2022-11-10T09:40:25.328Z,18.50
2022-11-10T09:44:23.240Z,18.70
2022-11-10T09:47:57.832Z,18.20
2022-11-10T09:51:29.364Z,18.00
2022-11-10T09:54:58.646Z,17.80
2022-11-10T09:58:23.418Z,17.50
2022-11-10T10:01:47.374Z,17.90
2022-11-10T10:05:13.636Z,18.20
2022-11-10T10:08:55.142Z,18.50
2022-11-10T10:12:20.197Z,18.40
2022-11-10T10:16:06.310Z,18.80
2022-11-10T10:19:36.115Z,18.40
2022-11-10T10:23:40.471Z,18.50
2022-11-10T10:27:07.010Z,18.20
2022-11-10T10:30:27.619Z,18.70
2022-11-10T10:33:48.607Z,18.50
2022-11-10T10:37:27.437Z,18.60
2022-11-10T10:40:50.701Z,18.50
2022-11-10T10:44:21.781Z,18.60
2022-11-10T10:47:43.027Z,18.50
2022-11-10T10:51:03.499Z,18.50
2022-11-10T10:54:25.904Z,18.70
2022-11-10T10:58:00.517Z,18.70
2022-11-10T11:01:25.506Z,18.70
2022-11-10T11:04:46.310Z,18.90
2022-11-10T11:08:17.225Z,19.10
2022-11-10T11:11:39.991Z,18.60
2022-11-10T11:15:28.568Z,18.40
2022-11-10T11:18:49.142Z,18.70
2022-11-10T11:22:25.016Z,18.50
2022-11-10T11:25:47.904Z,18.60
2022-11-10T11:29:33.066Z,18.30
2022-11-10T11:33:27.185Z,18.40
2022-11-10T11:36:59.261Z,18.40
2022-11-10T11:40:43.941Z,18.20
2022-11-10T11:44:19.693Z,18.20
2022-11-10T11:48:06.691Z,18.00
2022-11-10T12:03:34.135Z,17.90
2022-11-10T12:07:08.751Z,17.60
2022-11-10T12:10:41.917Z,17.70
2022-11-10T12:14:25.530Z,17.60
2022-11-10T12:18:04.302Z,17.70
2022-11-10T12:21:30.469Z,17.60
2022-11-10T12:25:08.606Z,17.70
2022-11-10T12:28:35.442Z,17.90
2022-11-10T12:32:03.559Z,17.80
2022-11-10T12:35:35.644Z,17.90
2022-11-10T12:38:59.851Z,17.70
2022-11-10T12:42:28.181Z,17.80
2022-11-10T12:46:02.153Z,17.80
2022-11-10T12:49:31.045Z,17.90
2022-11-10T12:53:24.882Z,17.80
2022-11-10T12:56:38.640Z,17.70
2022-11-10T13:00:04.401Z,17.60
2022-11-10T13:03:34.842Z,17.70
2022-11-10T13:07:08.831Z,17.80
2022-11-10T13:10:32.969Z,17.80
2022-11-10T13:13:59.265Z,17.70
2022-11-10T13:17:29.197Z,17.50
2022-11-10T13:20:52.413Z,17.50
2022-11-10T13:24:28.315Z,17.50
2022-11-10T13:27:51.770Z,17.50
2022-11-10T13:31:30.702Z,17.50
2022-11-10T13:34:51.495Z,17.50
2022-11-10T13:38:32.461Z,17.40
2022-11-10T13:42:00.185Z,17.30
2022-11-10T13:45:32.157Z,17.20
2022-11-10T13:49:02.258Z,17.10
2022-11-10T13:52:34.493Z,17.00
2022-11-10T13:56:32.570Z,16.90
2022-11-10T13:59:57.072Z,16.80
2022-11-10T14:03:46.987Z,16.90
2022-11-10T14:07:17.603Z,16.80
2022-11-10T14:10:54.969Z,16.70
2022-11-10T14:14:39.731Z,16.60
2022-11-10T14:18:01.207Z,16.50
2022-11-10T14:21:38.345Z,16.50
2022-11-10T14:25:06.630Z,16.40
2022-11-10T14:28:28.989Z,16.40
2022-11-10T14:31:49.363Z,16.30
2022-11-10T14:35:28.163Z,16.30
2022-11-10T14:38:50.759Z,16.20
2022-11-10T14:42:18.706Z,16.30
2022-11-10T14:45:50.721Z,16.20
2022-11-10T14:49:11.487Z,16.10
2022-11-10T14:52:31.812Z,15.90
2022-11-10T14:55:54.956Z,16.00
2022-11-10T14:59:17.006Z,16.10
2022-11-10T15:02:39.792Z,16.00
2022-11-10T15:06:02.232Z,16.00
2022-11-10T15:09:31.558Z,15.80
2022-11-10T15:13:00.313Z,15.70
2022-11-10T15:16:23.181Z,15.60
2022-11-10T15:19:46.741Z,15.50
2022-11-10T15:23:21.866Z,15.40
2022-11-10T15:26:42.538Z,15.40
2022-11-10T15:30:19.841Z,15.40
2022-11-10T15:33:46.389Z,15.30
2022-11-10T15:37:30.547Z,15.10
2022-11-10T15:40:53.233Z,15.20
2022-11-10T15:44:22.077Z,15.40
2022-11-10T15:47:42.739Z,15.30
2022-11-10T15:51:05.332Z,14.90
2022-11-10T15:54:29.296Z,14.80
2022-11-10T15:57:49.969Z,14.50
2022-11-10T16:01:15.080Z,14.30
2022-11-10T16:04:35.491Z,14.30
2022-11-10T16:07:55.974Z,14.20
2022-11-10T16:11:17.672Z,14.10
2022-11-10T16:14:42.203Z,13.90
2022-11-10T16:18:02.811Z,13.90
2022-11-10T16:21:25.332Z,13.70
2022-11-10T16:24:46.386Z,13.60
2022-11-10T16:28:07.453Z,13.40
2022-11-10T16:31:28.049Z,13.10
2022-11-10T16:34:36.085Z,13.10
2022-11-10T16:37:58.853Z,13.00
2022-11-10T16:41:19.224Z,12.90
2022-11-10T16:44:42.784Z,13.00
2022-11-10T16:48:06.787Z,12.80
2022-11-10T16:51:48.350Z,12.60
2022-11-10T16:55:12.562Z,12.80
2022-11-10T16:58:32.973Z,12.70
2022-11-10T17:01:53.734Z,12.70
2022-11-10T17:05:15.243Z,12.70
2022-11-10T17:08:36.273Z,12.40
2022-11-10T17:11:57.118Z,12.50
2022-11-10T17:15:18.052Z,12.40
2022-11-10T17:18:38.918Z,12.30
2022-11-10T17:21:59.169Z,12.30
2022-11-10T17:25:26.283Z,12.40
2022-11-10T17:28:46.804Z,12.20
2022-11-10T17:32:07.209Z,12.20
2022-11-10T17:35:27.650Z,12.20
2022-11-10T17:38:48.680Z,12.10
2022-11-10T17:42:13.110Z,11.90
2022-11-10T17:45:33.510Z,12.00
2022-11-10T17:48:54.724Z,12.00
2022-11-10T17:52:18.349Z,11.90
2022-11-10T17:55:41.351Z,11.90
2022-11-10T17:59:01.753Z,11.80
2022-11-10T18:05:49.136Z,11.60
2022-11-10T18:09:09.944Z,11.50
2022-11-10T18:12:30.489Z,11.50
2022-11-10T18:15:51.325Z,11.40
2022-11-10T18:19:12.137Z,11.50
2022-11-10T18:22:32.645Z,11.50
2022-11-10T18:25:53.560Z,11.50
2022-11-10T18:29:14.120Z,11.20
2022-11-10T18:32:34.627Z,11.30
2022-11-10T18:35:59.185Z,11.30
2022-11-10T18:39:20.122Z,11.10
2022-11-10T18:42:40.633Z,10.90
2022-11-10T18:46:01.302Z,10.80
2022-11-10T18:49:22.178Z,10.70
2022-11-10T18:52:43.460Z,10.60
2022-11-10T18:56:04.777Z,10.80
2022-11-10T18:59:25.206Z,10.80
2022-11-10T19:02:45.678Z,10.70
2022-11-10T19:06:06.744Z,10.90
2022-11-10T19:09:27.385Z,10.80
2022-11-10T19:12:47.968Z,10.80
2022-11-10T19:16:14.712Z,10.70
2022-11-10T19:19:35.310Z,10.70
2022-11-10T19:22:56.112Z,10.70
2022-11-10T19:26:22.723Z,10.70
2022-11-10T19:29:44.249Z,10.60
2022-11-10T19:33:05.159Z,10.40
2022-11-10T19:36:28.002Z,10.40
2022-11-10T19:39:48.567Z,10.40
2022-11-10T19:43:09.430Z,10.50
2022-11-10T19:46:31.146Z,10.60
2022-11-10T19:49:51.611Z,10.40
2022-11-10T19:53:12.537Z,10.50
2022-11-10T19:56:33.237Z,10.40
2022-11-10T19:59:54.270Z,10.40
2022-11-10T20:03:15.255Z,10.40
2022-11-10T20:06:35.920Z,10.30
2022-11-10T20:09:56.359Z,10.40
2022-11-10T20:13:19.148Z,10.50
2022-11-10T20:16:39.896Z,10.40
2022-11-10T20:20:00.542Z,10.30
2022-11-10T20:23:21.320Z,10.40
2022-11-10T20:26:42.135Z,10.50
2022-11-10T20:30:02.783Z,10.40
2022-11-10T20:33:23.848Z,10.30
2022-11-10T20:36:45.062Z,10.40
2022-11-10T20:40:37.769Z,10.30
2022-11-10T20:43:48.711Z,10.30
2022-11-10T20:47:09.591Z,10.20
2022-11-10T20:50:30.326Z,10.00
2022-11-10T20:53:51.336Z,10.10
2022-11-10T20:57:12.154Z,10.10
2022-11-10T21:00:33.193Z,9.90
2022-11-10T21:03:54.864Z,10.10
2022-11-10T21:07:15.750Z,10.00
2022-11-10T21:10:36.486Z,10.10
2022-11-10T21:13:59.856Z,10.10
2022-11-10T21:17:20.665Z,9.80
2022-11-10T21:20:41.173Z,9.60
2022-11-10T21:24:03.473Z,9.70
2022-11-10T21:27:24.434Z,9.50
2022-11-10T21:30:45.738Z,9.10
2022-11-10T21:34:06.655Z,9.00
2022-11-10T21:37:27.385Z,9.20
2022-11-10T21:40:47.983Z,9.20
2022-11-10T21:44:08.880Z,9.10
2022-11-10T21:47:29.492Z,9.40
2022-11-10T21:50:50.374Z,9.20
2022-11-10T21:54:11.133Z,9.30
2022-11-10T21:57:33.171Z,9.30
2022-11-10T22:01:06.372Z,9.30
2022-11-10T22:04:28.062Z,9.10
2022-11-10T22:07:48.534Z,9.20
2022-11-10T22:11:15.978Z,9.30
2022-11-10T22:14:36.789Z,9.30
2022-11-10T22:17:57.782Z,9.30
2022-11-10T22:21:18.839Z,9.20
2022-11-10T22:24:43.094Z,9.00
2022-11-10T22:28:03.722Z,9.00
2022-11-10T22:31:24.188Z,9.00
2022-11-10T22:34:44.639Z,8.90
2022-11-10T22:38:05.993Z,8.90
2022-11-10T22:41:26.301Z,8.90
2022-11-10T22:44:46.824Z,9.00
2022-11-10T22:48:07.207Z,9.00
2022-11-10T22:51:29.530Z,8.90
2022-11-10T22:54:49.986Z,8.90
2022-11-10T22:58:10.531Z,8.90
2022-11-10T23:01:31.199Z,8.90
2022-11-10T23:04:51.693Z,8.80
2022-11-10T23:08:14.691Z,8.70
2022-11-10T23:11:35.363Z,8.80
2022-11-10T23:14:56.021Z,8.40
2022-11-10T23:18:16.518Z,8.50
2022-11-10T23:21:37.051Z,8.60
2022-11-10T23:24:57.759Z,8.70
2022-11-10T23:28:18.435Z,8.70
2022-11-10T23:31:38.853Z,8.70
2022-11-10T23:34:59.448Z,8.60
2022-11-10T23:38:20.163Z,8.70
2022-11-10T23:41:40.585Z,8.70
2022-11-10T23:45:01.015Z,8.60
2022-11-10T23:48:22.193Z,8.40
2022-11-10T23:51:43.027Z,7.90
2022-11-10T23:55:03.796Z,8.10
2022-11-10T23:58:24.797Z,8.00
